sensor_id;sensor_type;location;lat;lon;timestamp;pressure;altitude;pressure_sealevel;temperature;humidity
73240;BME280;61452;40.054;4.110;2023-03-19T00:04:03;101786.13;;;16.87;55.53
73240;BME280;61452;40.054;4.110;2023-03-19T00:09:05;101785.28;;;16.87;55.62
73240;BME280;61452;40.054;4.110;2023-03-19T00:14:08;101788.03;;;16.85;55.48
73240;BME280;61452;40.054;4.110;2023-03-19T00:19:10;101792.50;;;16.85;55.33
73240;BME280;61452;40.054;4.110;2023-03-19T00:24:12;101789.72;;;16.86;55.20
73240;BME280;61452;40.054;4.110;2023-03-19T00:29:14;101793.31;;;16.85;55.39
73240;BME280;61452;40.054;4.110;2023-03-19T00:34:17;101806.69;;;16.84;55.56
73240;BME280;61452;40.054;4.110;2023-03-19T00:39:22;101805.75;;;16.85;55.39
73240;BME280;61452;40.054;4.110;2023-03-19T00:44:24;101804.03;;;16.84;55.26
73240;BME280;61452;40.054;4.110;2023-03-19T00:49:27;101800.53;;;16.83;55.32
73240;BME280;61452;40.054;4.110;2023-03-19T00:54:29;101801.38;;;16.84;55.30
73240;BME280;61452;40.054;4.110;2023-03-19T00:59:33;101820.88;;;16.83;55.45
73240;BME280;61452;40.054;4.110;2023-03-19T01:04:36;101809.41;;;16.82;55.34
73240;BME280;61452;40.054;4.110;2023-03-19T01:09:38;101818.31;;;16.81;55.37
73240;BME280;61452;40.054;4.110;2023-03-19T01:14:41;101818.22;;;16.83;55.37
73240;BME280;61452;40.054;4.110;2023-03-19T01:19:44;101817.44;;;16.81;55.42
73240;BME280;61452;40.054;4.110;2023-03-19T01:24:46;101814.78;;;16.81;55.42
73240;BME280;61452;40.054;4.110;2023-03-19T01:29:49;101812.06;;;16.82;55.39
73240;BME280;61452;40.054;4.110;2023-03-19T01:35:02;101813.84;;;16.82;55.45
73240;BME280;61452;40.054;4.110;2023-03-19T01:40:05;101816.50;;;16.82;55.14
73240;BME280;61452;40.054;4.110;2023-03-19T01:45:32;101807.78;;;16.80;55.24
73240;BME280;61452;40.054;4.110;2023-03-19T01:51:05;101806.84;;;16.81;55.42
73240;BME280;61452;40.054;4.110;2023-03-19T01:56:31;101807.69;;;16.81;55.50
73240;BME280;61452;40.054;4.110;2023-03-19T02:01:45;101807.78;;;16.80;55.16
73240;BME280;61452;40.054;4.110;2023-03-19T02:06:48;101792.81;;;16.79;54.94
73240;BME280;61452;40.054;4.110;2023-03-19T02:11:51;101791.13;;;16.78;55.28
73240;BME280;61452;40.054;4.110;2023-03-19T02:16:54;101783.06;;;16.79;55.51
73240;BME280;61452;40.054;4.110;2023-03-19T02:21:59;101793.59;;;16.81;55.38
73240;BME280;61452;40.054;4.110;2023-03-19T02:27:02;101793.69;;;16.79;55.36
73240;BME280;61452;40.054;4.110;2023-03-19T02:32:07;101787.63;;;16.77;55.36
73240;BME280;61452;40.054;4.110;2023-03-19T02:37:16;101785.94;;;16.76;55.11
73240;BME280;61452;40.054;4.110;2023-03-19T02:42:23;101793.88;;;16.76;55.04
73240;BME280;61452;40.054;4.110;2023-03-19T02:47:28;101779.69;;;16.77;55.43
73240;BME280;61452;40.054;4.110;2023-03-19T02:52:30;101791.13;;;16.78;55.65
73240;BME280;61452;40.054;4.110;2023-03-19T02:57:32;101786.78;;;16.77;55.22
73240;BME280;61452;40.054;4.110;2023-03-19T03:02:34;101795.59;;;16.77;54.97
73240;BME280;61452;40.054;4.110;2023-03-19T03:07:36;101793.88;;;16.76;55.14
73240;BME280;61452;40.054;4.110;2023-03-19T03:12:39;101802.59;;;16.78;55.26
73240;BME280;61452;40.054;4.110;2023-03-19T03:17:43;101795.75;;;16.74;55.42
73240;BME280;61452;40.054;4.110;2023-03-19T03:22:46;101806.34;;;16.74;55.47
73240;BME280;61452;40.054;4.110;2023-03-19T03:27:49;101812.50;;;16.75;55.55
73240;BME280;61452;40.054;4.110;2023-03-19T03:32:51;101814.38;;;16.73;55.33
73240;BME280;61452;40.054;4.110;2023-03-19T03:37:54;101807.13;;;16.76;55.55
73240;BME280;61452;40.054;4.110;2023-03-19T03:42:57;101796.78;;;16.72;55.56
73240;BME280;61452;40.054;4.110;2023-03-19T03:48:00;101811.72;;;16.73;55.20
73240;BME280;61452;40.054;4.110;2023-03-19T03:53:03;101806.34;;;16.74;55.06
73240;BME280;61452;40.054;4.110;2023-03-19T03:58:05;101806.44;;;16.73;55.33
73240;BME280;61452;40.054;4.110;2023-03-19T04:03:08;101804.56;;;16.75;55.38
73240;BME280;61452;40.054;4.110;2023-03-19T04:08:11;101809.06;;;16.73;55.57
73240;BME280;61452;40.054;4.110;2023-03-19T04:13:14;101805.59;;;16.72;55.50
73240;BME280;61452;40.054;4.110;2023-03-19T04:18:16;101814.38;;;16.73;55.63
73240;BME280;61452;40.054;4.110;2023-03-19T04:23:18;101817.03;;;16.73;55.11
73240;BME280;61452;40.054;4.110;2023-03-19T04:28:20;101812.59;;;16.73;55.03
73240;BME280;61452;40.054;4.110;2023-03-19T04:33:22;101821.38;;;16.74;55.21
73240;BME280;61452;40.054;4.110;2023-03-19T04:38:25;101818.94;;;16.71;55.36
73240;BME280;61452;40.054;4.110;2023-03-19T04:43:27;101833.03;;;16.71;55.36
73240;BME280;61452;40.054;4.110;2023-03-19T04:48:29;101833.88;;;16.72;55.35
73240;BME280;61452;40.054;4.110;2023-03-19T04:53:32;101828.59;;;16.72;55.42
73240;BME280;61452;40.054;4.110;2023-03-19T04:58:34;101833.78;;;16.73;55.50
73240;BME280;61452;40.054;4.110;2023-03-19T05:03:37;101848.94;;;16.71;55.63
73240;BME280;61452;40.054;4.110;2023-03-19T05:08:39;101862.19;;;16.71;55.61
73240;BME280;61452;40.054;4.110;2023-03-19T05:13:42;101866.53;;;16.72;55.63
73240;BME280;61452;40.054;4.110;2023-03-19T05:18:44;101864.03;;;16.69;55.77
73240;BME280;61452;40.054;4.110;2023-03-19T05:23:48;101869.25;;;16.71;55.57
73240;BME280;61452;40.054;4.110;2023-03-19T05:28:53;101879.00;;;16.70;55.62
73240;BME280;61452;40.054;4.110;2023-03-19T05:34:05;101883.38;;;16.71;55.58
73240;BME280;61452;40.054;4.110;2023-03-19T05:39:09;101891.31;;;16.71;55.60
73240;BME280;61452;40.054;4.110;2023-03-19T05:44:14;101887.88;;;16.69;55.10
73240;BME280;61452;40.054;4.110;2023-03-19T05:49:56;101886.19;;;16.68;55.04
73240;BME280;61452;40.054;4.110;2023-03-19T05:54:58;101899.34;;;16.70;55.42
73240;BME280;61452;40.054;4.110;2023-03-19T06:00:11;101913.44;;;16.70;55.47
73240;BME280;61452;40.054;4.110;2023-03-19T06:05:16;101928.47;;;16.70;55.45
73240;BME280;61452;40.054;4.110;2023-03-19T06:10:19;101928.56;;;16.68;55.44
73240;BME280;61452;40.054;4.110;2023-03-19T06:15:25;101932.06;;;16.69;55.51
73240;BME280;61452;40.054;4.110;2023-03-19T06:20:53;101926.78;;;16.69;55.46
73240;BME280;61452;40.054;4.110;2023-03-19T06:25:56;101933.94;;;16.67;55.49
73240;BME280;61452;40.054;4.110;2023-03-19T06:31:03;101952.41;;;16.68;55.34
73240;BME280;61452;40.054;4.110;2023-03-19T06:36:25;101954.13;;;16.69;55.23
73240;BME280;61452;40.054;4.110;2023-03-19T06:41:28;101967.38;;;16.69;55.61
73240;BME280;61452;40.054;4.110;2023-03-19T06:46:39;101972.66;;;16.69;55.48
73240;BME280;61452;40.054;4.110;2023-03-19T06:51:41;101975.41;;;16.68;55.51
73240;BME280;61452;40.054;4.110;2023-03-19T06:56:43;101985.06;;;16.69;55.49
73240;BME280;61452;40.054;4.110;2023-03-19T07:01:47;101996.59;;;16.68;55.36
73240;BME280;61452;40.054;4.110;2023-03-19T07:06:49;101995.72;;;16.67;54.93
73240;BME280;61452;40.054;4.110;2023-03-19T07:11:51;101997.50;;;16.67;55.14
73240;BME280;61452;40.054;4.110;2023-03-19T07:16:53;102001.81;;;16.69;55.22
73240;BME280;61452;40.054;4.110;2023-03-19T07:21:55;102014.38;;;16.66;55.45
73240;BME280;61452;40.054;4.110;2023-03-19T07:26:58;102016.16;;;16.65;55.29
73240;BME280;61452;40.054;4.110;2023-03-19T07:32:00;102014.28;;;16.67;55.34
73240;BME280;61452;40.054;4.110;2023-03-19T07:37:02;102021.38;;;16.67;55.40
73240;BME280;61452;40.054;4.110;2023-03-19T07:42:04;102022.22;;;16.67;55.45
73240;BME280;61452;40.054;4.110;2023-03-19T07:47:06;102016.41;;;16.61;55.55
73240;BME280;61452;40.054;4.110;2023-03-19T07:52:26;102038.13;;;16.67;55.38
73240;BME280;61452;40.054;4.110;2023-03-19T07:57:29;102049.56;;;16.68;55.45
73240;BME280;61452;40.054;4.110;2023-03-19T08:02:33;102031.47;;;16.60;55.67
73240;BME280;61452;40.054;4.110;2023-03-19T08:07:36;102056.66;;;16.67;55.45
73240;BME280;61452;40.054;4.110;2023-03-19T08:12:38;102054.00;;;16.67;55.31
73240;BME280;61452;40.054;4.110;2023-03-19T08:17:42;102054.00;;;16.67;55.60
73240;BME280;61452;40.054;4.110;2023-03-19T08:22:48;102056.66;;;16.67;55.76
73240;BME280;61452;40.054;4.110;2023-03-19T08:27:50;102061.97;;;16.67;55.71
73240;BME280;61452;40.054;4.110;2023-03-19T08:32:52;102070.75;;;16.68;55.83
73240;BME280;61452;40.054;4.110;2023-03-19T08:37:55;102079.56;;;16.68;56.00
73240;BME280;61452;40.054;4.110;2023-03-19T08:42:57;102084.88;;;16.68;56.32
73240;BME280;61452;40.054;4.110;2023-03-19T08:47:59;102092.81;;;16.68;56.53
73240;BME280;61452;40.054;4.110;2023-03-19T08:53:02;102098.19;;;16.67;56.30
73240;BME280;61452;40.054;4.110;2023-03-19T08:58:04;102100.78;;;16.68;56.04
73240;BME280;61452;40.054;4.110;2023-03-19T09:03:06;102102.56;;;16.68;56.04
73240;BME280;61452;40.054;4.110;2023-03-19T09:08:08;102117.59;;;16.67;56.43
73240;BME280;61452;40.054;4.110;2023-03-19T09:13:11;102125.53;;;16.67;56.60
73240;BME280;61452;40.054;4.110;2023-03-19T09:18:13;102135.13;;;16.70;56.84
73240;BME280;61452;40.054;4.110;2023-03-19T09:23:15;102131.69;;;16.68;56.96
73240;BME280;61452;40.054;4.110;2023-03-19T09:28:18;102139.66;;;16.68;57.41
73240;BME280;61452;40.054;4.110;2023-03-19T09:33:20;102131.81;;;16.66;57.24
73240;BME280;61452;40.054;4.110;2023-03-19T09:38:22;102135.13;;;16.70;56.94
73240;BME280;61452;40.054;4.110;2023-03-19T09:48:53;102139.56;;;16.69;57.67
73240;BME280;61452;40.054;4.110;2023-03-19T09:54:00;102151.97;;;16.69;57.70
73240;BME280;61452;40.054;4.110;2023-03-19T09:59:03;102145.81;;;16.68;57.65
73240;BME280;61452;40.054;4.110;2023-03-19T10:04:08;102147.53;;;16.69;58.22
73240;BME280;61452;40.054;4.110;2023-03-19T10:09:38;102156.31;;;16.70;58.34
73240;BME280;61452;40.054;4.110;2023-03-19T10:15:00;102157.19;;;16.70;58.59
73240;BME280;61452;40.054;4.110;2023-03-19T10:20:11;102167.78;;;16.70;58.29
73240;BME280;61452;40.054;4.110;2023-03-19T10:25:22;102169.56;;;16.70;58.53
73240;BME280;61452;40.054;4.110;2023-03-19T10:30:29;102166.94;;;16.70;58.41
73240;BME280;61452;40.054;4.110;2023-03-19T10:35:40;102166.84;;;16.71;58.19
73240;BME280;61452;40.054;4.110;2023-03-19T10:40:55;102157.19;;;16.70;58.31
73240;BME280;61452;40.054;4.110;2023-03-19T10:46:01;102161.56;;;16.71;58.58
73240;BME280;61452;40.054;4.110;2023-03-19T10:51:04;102159.78;;;16.72;58.71
73240;BME280;61452;40.054;4.110;2023-03-19T10:56:19;102162.41;;;16.72;58.64
73240;BME280;61452;40.054;4.110;2023-03-19T11:01:35;102161.56;;;16.71;58.58
73240;BME280;61452;40.054;4.110;2023-03-19T11:06:37;102157.13;;;16.72;58.38
73240;BME280;61452;40.054;4.110;2023-03-19T11:11:50;102153.59;;;16.71;58.12
73240;BME280;61452;40.054;4.110;2023-03-19T11:22:14;102157.88;;;16.74;58.49
73240;BME280;61452;40.054;4.110;2023-03-19T11:27:32;102157.88;;;16.74;58.59
73240;BME280;61452;40.054;4.110;2023-03-19T11:32:54;102153.50;;;16.73;58.66
73240;BME280;61452;40.054;4.110;2023-03-19T11:38:02;102152.50;;;16.75;58.45
73240;BME280;61452;40.054;4.110;2023-03-19T12:04:35;102138.47;;;16.73;58.89
73240;BME280;61452;40.054;4.110;2023-03-19T12:09:48;102131.31;;;16.75;58.33
73240;BME280;61452;40.054;4.110;2023-03-19T12:20:33;102135.75;;;16.75;58.69
73240;BME280;61452;40.054;4.110;2023-03-19T12:26:16;102123.34;;;16.75;58.13
73240;BME280;61452;40.054;4.110;2023-03-19T12:37:11;102124.22;;;16.76;58.36
73240;BME280;61452;40.054;4.110;2023-03-19T12:42:18;102127.72;;;16.76;58.60
73240;BME280;61452;40.054;4.110;2023-03-19T12:47:26;102118.84;;;16.77;58.82
73240;BME280;61452;40.054;4.110;2023-03-19T12:52:41;102123.28;;;16.77;58.65
73240;BME280;61452;40.054;4.110;2023-03-19T12:57:51;102117.91;;;16.78;58.78
73240;BME280;61452;40.054;4.110;2023-03-19T13:08:28;102103.00;;;16.76;58.66
73240;BME280;61452;40.054;4.110;2023-03-19T13:13:55;102109.97;;;16.78;58.56
73240;BME280;61452;40.054;4.110;2023-03-19T13:19:33;102105.47;;;16.79;58.73
73240;BME280;61452;40.054;4.110;2023-03-19T13:24:41;102106.28;;;16.81;58.60
73240;BME280;61452;40.054;4.110;2023-03-19T13:30:16;102105.59;;;16.77;58.84
73240;BME280;61452;40.054;4.110;2023-03-19T13:40:45;102107.31;;;16.78;59.22
73240;BME280;61452;40.054;4.110;2023-03-19T13:45:53;102115.94;;;16.82;59.19
73240;BME280;61452;40.054;4.110;2023-03-19T13:51:02;102103.53;;;16.82;59.17
73240;BME280;61452;40.054;4.110;2023-03-19T13:56:09;102108.84;;;16.82;58.82
73240;BME280;61452;40.054;4.110;2023-03-19T14:06:40;102108.78;;;16.84;58.95
73240;BME280;61452;40.054;4.110;2023-03-19T14:11:44;102103.47;;;16.84;59.39
73240;BME280;61452;40.054;4.110;2023-03-19T14:16:48;102105.25;;;16.83;59.09
73240;BME280;61452;40.054;4.110;2023-03-19T14:27:02;102094.47;;;16.86;59.09
73240;BME280;61452;40.054;4.110;2023-03-19T14:32:07;102099.78;;;16.86;59.06
73240;BME280;61452;40.054;4.110;2023-03-19T14:42:25;102105.94;;;16.87;59.27
73240;BME280;61452;40.054;4.110;2023-03-19T14:57:55;102110.38;;;16.86;58.75
73240;BME280;61452;40.054;4.110;2023-03-19T15:02:57;102105.09;;;16.86;58.77
73240;BME280;61452;40.054;4.110;2023-03-19T15:08:05;102103.38;;;16.85;58.80
73240;BME280;61452;40.054;4.110;2023-03-19T15:13:31;102104.16;;;16.87;59.06
73240;BME280;61452;40.054;4.110;2023-03-19T15:18:38;102107.66;;;16.88;58.91
73240;BME280;61452;40.054;4.110;2023-03-19T15:23:44;102104.16;;;16.87;58.56
73240;BME280;61452;40.054;4.110;2023-03-19T15:28:49;102095.41;;;16.85;58.67
73240;BME280;61452;40.054;4.110;2023-03-19T15:33:54;102104.16;;;16.87;58.67
73240;BME280;61452;40.054;4.110;2023-03-19T15:39:02;102106.81;;;16.87;58.75
73240;BME280;61452;40.054;4.110;2023-03-19T15:44:09;102107.66;;;16.88;58.77
73240;BME280;61452;40.054;4.110;2023-03-19T15:49:28;102111.16;;;16.88;58.73
73240;BME280;61452;40.054;4.110;2023-03-19T15:54:32;102115.59;;;16.88;58.78
73240;BME280;61452;40.054;4.110;2023-03-19T15:59:35;102121.69;;;16.90;58.53
73240;BME280;61452;40.054;4.110;2023-03-19T16:04:37;102129.66;;;16.90;58.48
73240;BME280;61452;40.054;4.110;2023-03-19T16:10:20;102126.88;;;16.91;58.42
73240;BME280;61452;40.054;4.110;2023-03-19T16:15:44;102127.06;;;16.88;58.34
73240;BME280;61452;40.054;4.110;2023-03-19T16:21:02;102131.44;;;16.89;58.17
73240;BME280;61452;40.054;4.110;2023-03-19T16:26:15;102136.75;;;16.89;58.18
73240;BME280;61452;40.054;4.110;2023-03-19T16:31:20;102134.84;;;16.91;58.35
73240;BME280;61452;40.054;4.110;2023-03-19T16:36:27;102136.66;;;16.91;58.18
73240;BME280;61452;40.054;4.110;2023-03-19T16:41:30;102139.22;;;16.92;58.16
73240;BME280;61452;40.054;4.110;2023-03-19T16:46:33;102150.66;;;16.93;58.19
73240;BME280;61452;40.054;4.110;2023-03-19T16:51:36;102138.28;;;16.93;57.98
73240;BME280;61452;40.054;4.110;2023-03-19T16:56:38;102156.03;;;16.91;58.06
73240;BME280;61452;40.054;4.110;2023-03-19T17:01:41;102157.69;;;16.94;57.93
73240;BME280;61452;40.054;4.110;2023-03-19T17:06:43;102160.34;;;16.94;57.99
73240;BME280;61452;40.054;4.110;2023-03-19T17:11:46;102158.00;;;16.88;57.82
73240;BME280;61452;40.054;4.110;2023-03-19T17:16:48;102170.88;;;16.95;57.61
73240;BME280;61452;40.054;4.110;2023-03-19T17:21:56;102170.88;;;16.95;57.65
73240;BME280;61452;40.054;4.110;2023-03-19T17:27:01;102182.41;;;16.94;57.73
73240;BME280;61452;40.054;4.110;2023-03-19T17:32:05;102194.72;;;16.95;57.63
73240;BME280;61452;40.054;4.110;2023-03-19T17:37:12;102192.00;;;16.97;57.65
73240;BME280;61452;40.054;4.110;2023-03-19T17:42:20;102211.47;;;16.96;57.70
73240;BME280;61452;40.054;4.110;2023-03-19T17:47:23;102221.97;;;16.97;57.66
73240;BME280;61452;40.054;4.110;2023-03-19T17:52:26;102230.03;;;16.96;57.37
73240;BME280;61452;40.054;4.110;2023-03-19T17:57:31;102233.53;;;16.96;57.34
73240;BME280;61452;40.054;4.110;2023-03-19T18:02:33;102255.63;;;16.97;57.28
73240;BME280;61452;40.054;4.110;2023-03-19T18:07:37;102256.53;;;16.96;57.56
73240;BME280;61452;40.054;4.110;2023-03-19T18:12:39;102246.81;;;16.96;57.54
73240;BME280;61452;40.054;4.110;2023-03-19T18:17:45;102259.19;;;16.96;57.24
73240;BME280;61452;40.054;4.110;2023-03-19T18:22:48;102262.69;;;16.96;57.44
73240;BME280;61452;40.054;4.110;2023-03-19T18:27:51;102268.94;;;16.95;57.28
73240;BME280;61452;40.054;4.110;2023-03-19T18:32:57;102264.50;;;16.96;57.18
73240;BME280;61452;40.054;4.110;2023-03-19T18:38:00;102263.63;;;16.95;57.25
73240;BME280;61452;40.054;4.110;2023-03-19T18:43:02;102272.34;;;16.97;57.33
73240;BME280;61452;40.054;4.110;2023-03-19T18:48:19;102276.81;;;16.97;57.33
73240;BME280;61452;40.054;4.110;2023-03-19T18:53:22;102277.66;;;16.97;57.45
73240;BME280;61452;40.054;4.110;2023-03-19T18:58:26;102274.16;;;16.97;57.15
73240;BME280;61452;40.054;4.110;2023-03-19T19:03:30;102278.50;;;16.98;57.30
73240;BME280;61452;40.054;4.110;2023-03-19T19:08:34;102284.66;;;16.98;57.20
73240;BME280;61452;40.054;4.110;2023-03-19T19:13:37;102285.59;;;16.97;57.17
73240;BME280;61452;40.054;4.110;2023-03-19T19:18:56;102289.09;;;16.98;57.34
73240;BME280;61452;40.054;4.110;2023-03-19T19:23:58;102294.28;;;17.01;57.11
73240;BME280;61452;40.054;4.110;2023-03-19T19:29:00;102302.22;;;17.01;57.07
73240;BME280;61452;40.054;4.110;2023-03-19T19:34:03;102301.50;;;16.97;57.16
73240;BME280;61452;40.054;4.110;2023-03-19T19:39:05;102309.44;;;16.97;57.05
73240;BME280;61452;40.054;4.110;2023-03-19T19:44:13;102303.31;;;16.97;56.93
73240;BME280;61452;40.054;4.110;2023-03-19T19:49:17;102312.09;;;16.97;56.80
73240;BME280;61452;40.054;4.110;2023-03-19T19:54:20;102320.06;;;16.97;57.02
73240;BME280;61452;40.054;4.110;2023-03-19T19:59:24;102331.69;;;16.95;56.98
73240;BME280;61452;40.054;4.110;2023-03-19T20:04:26;102333.41;;;16.96;56.92
73240;BME280;61452;40.054;4.110;2023-03-19T20:09:31;102336.06;;;16.96;56.88
73240;BME280;61452;40.054;4.110;2023-03-19T20:14:33;102350.88;;;17.00;56.74
73240;BME280;61452;40.054;4.110;2023-03-19T20:19:35;102360.53;;;17.01;56.78
73240;BME280;61452;40.054;4.110;2023-03-19T20:24:37;102353.69;;;16.97;56.90
73240;BME280;61452;40.054;4.110;2023-03-19T20:29:40;102347.44;;;16.98;56.91
73240;BME280;61452;40.054;4.110;2023-03-19T20:34:42;102349.31;;;16.96;56.91
73240;BME280;61452;40.054;4.110;2023-03-19T20:39:44;102360.78;;;16.96;56.98
73240;BME280;61452;40.054;4.110;2023-03-19T20:44:47;102367.00;;;16.95;57.24
73240;BME280;61452;40.054;4.110;2023-03-19T20:49:49;102367.88;;;16.96;57.05
73240;BME280;61452;40.054;4.110;2023-03-19T20:54:52;102368.72;;;16.96;56.94
73240;BME280;61452;40.054;4.110;2023-03-19T20:59:54;102377.63;;;16.95;56.86
73240;BME280;61452;40.054;4.110;2023-03-19T21:04:56;102362.00;;;16.89;57.01
73240;BME280;61452;40.054;4.110;2023-03-19T21:10:00;102372.31;;;16.95;57.13
73240;BME280;61452;40.054;4.110;2023-03-19T21:15:05;102380.97;;;16.99;56.81
73240;BME280;61452;40.054;4.110;2023-03-19T21:20:15;102380.88;;;17.01;56.73
73240;BME280;61452;40.054;4.110;2023-03-19T21:25:21;102385.41;;;16.98;57.00
73240;BME280;61452;40.054;4.110;2023-03-19T21:30:24;102380.19;;;16.97;56.94
73240;BME280;61452;40.054;4.110;2023-03-19T21:35:26;102383.78;;;16.96;56.98
73240;BME280;61452;40.054;4.110;2023-03-19T21:40:29;102380.19;;;16.97;57.43
73240;BME280;61452;40.054;4.110;2023-03-19T21:45:33;102385.56;;;16.95;57.22
73240;BME280;61452;40.054;4.110;2023-03-19T21:50:39;102382.06;;;16.95;56.96
73240;BME280;61452;40.054;4.110;2023-03-19T21:55:41;102389.16;;;16.94;56.94
73240;BME280;61452;40.054;4.110;2023-03-19T22:00:44;102386.50;;;16.94;56.75
73240;BME280;61452;40.054;4.110;2023-03-19T22:05:48;102373.06;;;16.97;56.58
73240;BME280;61452;40.054;4.110;2023-03-19T22:10:54;102371.28;;;16.98;56.36
73240;BME280;61452;40.054;4.110;2023-03-19T22:15:57;102363.50;;;16.95;56.55
73240;BME280;61452;40.054;4.110;2023-03-19T22:21:02;102368.81;;;16.95;56.55
73240;BME280;61452;40.054;4.110;2023-03-19T22:26:05;102367.00;;;16.95;56.49
73240;BME280;61452;40.054;4.110;2023-03-19T22:31:22;102360.91;;;16.93;56.76
73240;BME280;61452;40.054;4.110;2023-03-19T22:36:25;102353.69;;;16.97;56.99
73240;BME280;61452;40.054;4.110;2023-03-19T22:41:30;102352.72;;;16.98;56.99
73240;BME280;61452;40.054;4.110;2023-03-19T22:46:34;102351.03;;;16.97;56.83
73240;BME280;61452;40.054;4.110;2023-03-19T22:51:37;102358.25;;;16.93;57.10
73240;BME280;61452;40.054;4.110;2023-03-19T22:56:39;102356.53;;;16.92;57.05
73240;BME280;61452;40.054;4.110;2023-03-19T23:01:45;102359.00;;;16.97;56.73
73240;BME280;61452;40.054;4.110;2023-03-19T23:06:48;102360.69;;;16.98;56.69
73240;BME280;61452;40.054;4.110;2023-03-19T23:11:51;102357.28;;;16.96;56.81
73240;BME280;61452;40.054;4.110;2023-03-19T23:16:55;102364.44;;;16.94;56.94
73240;BME280;61452;40.054;4.110;2023-03-19T23:21:58;102355.63;;;16.93;57.32
73240;BME280;61452;40.054;4.110;2023-03-19T23:27:01;102346.88;;;16.91;57.24
73240;BME280;61452;40.054;4.110;2023-03-19T23:32:04;102357.47;;;16.91;57.40
73240;BME280;61452;40.054;4.110;2023-03-19T23:37:06;102346.97;;;16.90;57.53
73240;BME280;61452;40.054;4.110;2023-03-19T23:42:21;102340.03;;;16.87;57.40
73240;BME280;61452;40.054;4.110;2023-03-19T23:47:28;102342.53;;;16.90;57.25
73240;BME280;61452;40.054;4.110;2023-03-19T23:52:30;102331.06;;;16.90;57.31
73240;BME280;61452;40.054;4.110;2023-03-19T23:57:36;102330.22;;;16.89;57.26
